Pinot Noir Commodore — WCZ7643 — position and weather

sailwx.info

Track history (hours):
 
Tides and Currents Weather Stations Pressure Air Temp Water Temp Dewpoint Dewpoint Depression Visibility Wind Speed Wind Dir Waves Ship Positions

Pinot Noir Commodore

Owner: PROESCHER, WARD H, Alameda, CA. More information available from US FCC via Universal Licensing System and Coast Guard Vessel Documentation Center.

Last reported at 2018-Feb-20 19:09 UTC. Time now 2018-Feb-21 17:31 UTC.
Position N 37°55' W 122°22'.

Length 25 m; draft 1 m.

Type: Passenger vessel. MMSI: 367437910.

Date/timePositionNaut miles runAvg speedWind from/ knotsBaromVisibWave heightAir tempDewpointWater temp
2018-Feb-20 19:09N 37°55' W 122°22'0 0.1
2018-Feb-20 19:00N 37°55' W 122°22'0 0.0
2018-Feb-20 18:30N 37°55' W 122°22'0 0.0
2018-Feb-20 18:00N 37°55' W 122°22'0 0.0
2018-Feb-20 17:30N 37°55' W 122°22'1 2.0
2018-Feb-20 17:00N 37°54' W 122°22'2 4.8
2018-Feb-20 16:30N 37°53' W 122°24'4 8.2
2018-Feb-20 16:00N 37°49' W 122°21'4 8.0
2018-Feb-20 15:31N 37°48' W 122°17'  
2018-Feb-18 05:14N 37°47' W 122°17'0 0.0
2018-Feb-18 05:00N 37°47' W 122°17'0 0.7
2018-Feb-18 04:30N 37°48' W 122°17'3 5.9
2018-Feb-18 04:00N 37°48' W 122°21'4 7.6
2018-Feb-18 03:30N 37°50' W 122°25'1 1.8
2018-Feb-18 03:00N 37°49' W 122°25'3 6.7
2018-Feb-18 02:30N 37°48' W 122°21'4 7.0
2018-Feb-18 02:00N 37°47' W 122°17'0 0.0
2018-Feb-18 01:30N 37°47' W 122°17'0 0.0
2018-Feb-17 23:50N 37°47' W 122°17'  
2018-Feb-15 06:25N 37°47' W 122°17'1 2.6
2018-Feb-15 06:01N 37°48' W 122°18'3 6.0
2018-Feb-15 05:31N 37°49' W 122°21'3 6.2
2018-Feb-15 05:00N 37°50' W 122°25'2 3.8
2018-Feb-15 04:30N 37°48' W 122°24'3 5.2
2018-Feb-15 04:00N 37°48' W 122°20'3 6.0
2018-Feb-15 03:30N 37°47' W 122°17'0 0.0
2018-Feb-15 03:01N 37°47' W 122°17'0 0.0
2018-Feb-14 23:37N 37°47' W 122°17'0 0.1
2018-Feb-14 23:30N 37°47' W 122°17'  
2018-Feb-10 22:46N 37°47' W 122°17'1 2.0
2018-Feb-10 22:30N 37°48' W 122°17'3 6.8
2018-Feb-10 22:00N 37°48' W 122°22'3 5.1
2018-Feb-10 21:30N 37°49' W 122°25'2 4.8
2018-Feb-10 21:00N 37°47' W 122°23'4 7.1
2018-Feb-10 20:30N 37°48' W 122°19'2 3.4
2018-Feb-10 20:00N 37°47' W 122°17'0 0.0
2018-Feb-10 19:30N 37°47' W 122°17'  
Track history (hours):
 
Tides and Currents Weather Stations Pressure Air Temp Water Temp Dewpoint Dewpoint Depression Visibility Wind Speed Wind Dir Waves Ship Positions

Pinot Noir Commodore

Owner: PROESCHER, WARD H, Alameda, CA. More information available from US FCC via Universal Licensing System and Coast Guard Vessel Documentation Center.

Last reported at 2018-Feb-20 19:09 UTC. Time now 2018-Feb-21 17:31 UTC.
Position N 37°55' W 122°22'.

Length 25 m; draft 1 m.

Type: Passenger vessel. MMSI: 367437910.

Date/timePositionNaut miles runAvg speedWind from/ knotsBaromVisibWave heightAir tempDewpointWater temp
2018-Feb-20 19:09N 37°55' W 122°22'0 0.1
2018-Feb-20 19:00N 37°55' W 122°22'0 0.0
2018-Feb-20 18:30N 37°55' W 122°22'0 0.0
2018-Feb-20 18:00N 37°55' W 122°22'0 0.0
2018-Feb-20 17:30N 37°55' W 122°22'1 2.0
2018-Feb-20 17:00N 37°54' W 122°22'2 4.8
2018-Feb-20 16:30N 37°53' W 122°24'4 8.2
2018-Feb-20 16:00N 37°49' W 122°21'4 8.0
2018-Feb-20 15:31N 37°48' W 122°17'  
2018-Feb-18 05:14N 37°47' W 122°17'0 0.0
2018-Feb-18 05:00N 37°47' W 122°17'0 0.7
2018-Feb-18 04:30N 37°48' W 122°17'3 5.9
2018-Feb-18 04:00N 37°48' W 122°21'4 7.6
2018-Feb-18 03:30N 37°50' W 122°25'1 1.8
2018-Feb-18 03:00N 37°49' W 122°25'3 6.7
2018-Feb-18 02:30N 37°48' W 122°21'4 7.0
2018-Feb-18 02:00N 37°47' W 122°17'0 0.0
2018-Feb-18 01:30N 37°47' W 122°17'0 0.0
2018-Feb-17 23:50N 37°47' W 122°17'  
2018-Feb-15 06:25N 37°47' W 122°17'1 2.6
2018-Feb-15 06:01N 37°48' W 122°18'3 6.0
2018-Feb-15 05:31N 37°49' W 122°21'3 6.2
2018-Feb-15 05:00N 37°50' W 122°25'2 3.8
2018-Feb-15 04:30N 37°48' W 122°24'3 5.2
2018-Feb-15 04:00N 37°48' W 122°20'3 6.0
2018-Feb-15 03:30N 37°47' W 122°17'0 0.0
2018-Feb-15 03:01N 37°47' W 122°17'0 0.0
2018-Feb-14 23:37N 37°47' W 122°17'0 0.1
2018-Feb-14 23:30N 37°47' W 122°17'  
2018-Feb-10 22:46N 37°47' W 122°17'1 2.0
2018-Feb-10 22:30N 37°48' W 122°17'3 6.8
2018-Feb-10 22:00N 37°48' W 122°22'3 5.1
2018-Feb-10 21:30N 37°49' W 122°25'2 4.8
2018-Feb-10 21:00N 37°47' W 122°23'4 7.1
2018-Feb-10 20:30N 37°48' W 122°19'2 3.4
2018-Feb-10 20:00N 37°47' W 122°17'0 0.0
2018-Feb-10 19:30N 37°47' W 122°17'  

Dump ship's entire track history